Time;durP1;ratioP1;P1;durP2;ratioP2;P2;SDS_P1;SDS_P2;PMS_P1;PMS_P2;Temp;Humidity;BMP_temperature;BMP_pressure;BME280_temperature;BME280_humidity;BME280_pressure;Samples;Min_cycle;Max_cycle;Signal;HPM_P1;HPM_P2
2021/11/19 00:00:59;;;;;;;29.93;18.00;;;16.80;99.90;;;;;;5055206;28;20646;-64
2021/11/19 00:03:27;;;;;;;24.10;17.80;;;16.80;99.90;;;;;;5056276;28;20309;-64
2021/11/19 00:05:54;;;;;;;35.83;18.53;;;16.80;99.90;;;;;;5065809;28;20236;-65
2021/11/19 00:08:25;;;;;;;26.57;18.20;;;16.80;99.90;;;;;;5064127;28;20186;-64
2021/11/19 00:11:03;;;;;;;29.33;18.50;;;16.80;99.90;;;;;;5062094;28;20241;-64
2021/11/19 00:13:29;;;;;;;26.10;17.70;;;16.80;99.90;;;;;;5063494;28;20192;-64
2021/11/19 00:15:59;;;;;;;31.67;18.23;;;16.80;99.90;;;;;;5068665;28;20643;-64
2021/11/19 00:18:27;;;;;;;30.73;18.30;;;16.80;99.90;;;;;;5061053;28;20187;-65
2021/11/19 00:20:54;;;;;;;27.63;17.53;;;16.80;99.90;;;;;;5049455;28;20262;-63
2021/11/19 00:23:22;;;;;;;22.67;16.87;;;16.80;99.90;;;;;;5058242;28;20618;-64
2021/11/19 00:25:49;;;;;;;27.93;17.70;;;16.80;99.90;;;;;;5057245;28;20187;-64
2021/11/19 00:28:16;;;;;;;27.27;17.90;;;16.80;99.90;;;;;;5059776;28;20614;-64
2021/11/19 00:30:43;;;;;;;28.47;18.17;;;16.80;99.90;;;;;;5064140;28;20237;-64
2021/11/19 00:33:10;;;;;;;24.63;17.47;;;16.80;99.90;;;;;;5054186;28;20202;-65
2021/11/19 00:35:40;;;;;;;30.43;17.90;;;16.80;99.90;;;;;;5056065;28;20354;-64
2021/11/19 00:38:09;;;;;;;35.87;18.00;;;16.80;99.90;;;;;;5053969;28;20488;-64
2021/11/19 00:40:53;;;;;;;24.60;16.57;;;16.80;99.90;;;;;;5065026;28;20278;-64
2021/11/19 00:43:21;;;;;;;25.23;16.73;;;16.80;99.90;;;;;;5055905;28;20243;-64
2021/11/19 00:45:50;;;;;;;26.03;16.97;;;16.80;99.90;;;;;;5055538;28;20244;-64
2021/11/19 00:48:18;;;;;;;23.83;16.63;;;16.80;99.90;;;;;;5053764;28;20221;-64
2021/11/19 00:50:51;;;;;;;29.07;16.53;;;16.70;99.90;;;;;;5065820;28;20186;-64
2021/11/19 00:53:18;;;;;;;20.83;16.00;;;16.70;99.90;;;;;;5064623;28;20195;-64
2021/11/19 00:55:45;;;;;;;25.20;15.87;;;16.70;99.90;;;;;;5056131;28;20643;-64
2021/11/19 00:58:12;;;;;;;24.57;16.13;;;16.70;99.90;;;;;;5064062;28;20484;-64
2021/11/19 01:01:06;;;;;;;23.17;16.20;;;16.70;99.90;;;;;;5067288;28;20191;-64
2021/11/19 01:03:33;;;;;;;22.70;16.10;;;16.70;99.90;;;;;;5059131;28;20277;-64
2021/11/19 01:06:00;;;;;;;24.67;17.20;;;16.60;99.90;;;;;;5063259;28;20191;-64
2021/11/19 01:08:28;;;;;;;32.13;17.07;;;16.60;99.90;;;;;;5058977;28;20209;-65
2021/11/19 01:10:59;;;;;;;26.00;16.43;;;16.60;99.90;;;;;;5066756;28;20273;-64
2021/11/19 01:13:26;;;;;;;24.97;17.17;;;16.70;99.90;;;;;;5066607;28;20264;-64
2021/11/19 01:16:04;;;;;;;25.33;15.83;;;16.70;99.90;;;;;;5062955;28;20617;-64
2021/11/19 01:18:37;;;;;;;29.13;15.60;;;16.70;99.90;;;;;;5061812;28;20281;-64
2021/11/19 01:21:17;;;;;;;29.00;16.33;;;16.70;99.90;;;;;;5051719;28;20202;-64
2021/11/19 01:23:44;;;;;;;23.50;15.27;;;16.60;99.90;;;;;;5058513;28;20357;-65
2021/11/19 01:26:23;;;;;;;25.53;16.27;;;16.50;99.90;;;;;;5052192;28;20187;-64
2021/11/19 01:28:54;;;;;;;23.97;15.83;;;16.50;99.90;;;;;;5057346;28;20729;-64
2021/11/19 01:31:30;;;;;;;22.63;14.97;;;16.50;99.90;;;;;;5062228;28;20197;-64
2021/11/19 01:33:57;;;;;;;20.93;14.73;;;16.50;99.90;;;;;;5059509;28;20196;-64
2021/11/19 01:36:24;;;;;;;29.37;15.10;;;16.40;99.90;;;;;;5063630;28;20428;-64
2021/11/19 01:38:52;;;;;;;22.13;14.20;;;16.40;99.90;;;;;;5050465;28;20842;-64
2021/11/19 01:41:56;;;;;;;21.57;15.20;;;16.30;99.90;;;;;;5058714;28;20198;-64
2021/11/19 01:44:31;;;;;;;23.23;15.90;;;16.30;99.90;;;;;;5046894;28;20269;-64
2021/11/19 01:47:00;;;;;;;21.50;14.93;;;16.40;99.90;;;;;;5054314;28;20820;-65
2021/11/19 01:49:30;;;;;;;22.33;14.43;;;16.40;99.90;;;;;;5060556;28;20647;-64
2021/11/19 01:52:16;;;;;;;24.43;15.60;;;16.40;99.90;;;;;;5063579;28;20559;-65
2021/11/19 01:54:51;;;;;;;23.77;14.57;;;16.40;99.90;;;;;;5062174;28;20273;-64
2021/11/19 01:57:28;;;;;;;30.17;14.90;;;16.40;99.90;;;;;;5054268;28;20643;-64
2021/11/19 02:00:34;;;;;;;26.00;15.63;;;16.40;99.90;;;;;;5060850;28;20201;-64
2021/11/19 02:03:02;;;;;;;23.33;14.97;;;16.40;99.90;;;;;;5058911;28;20721;-65
2021/11/19 02:06:06;;;;;;;22.17;13.83;;;16.40;99.90;;;;;;5057769;28;20206;-64
2021/11/19 02:08:43;;;;;;;20.83;13.90;;;16.30;99.90;;;;;;5057474;28;20187;-64
2021/11/19 02:11:23;;;;;;;19.17;14.33;;;16.30;99.90;;;;;;5055031;28;20270;-64
2021/11/19 02:14:11;;;;;;;20.20;13.03;;;16.20;99.90;;;;;;5075133;28;20194;-64
2021/11/19 02:16:47;;;;;;;18.17;13.13;;;16.20;99.90;;;;;;5065202;28;20194;-64
2021/11/19 02:19:49;;;;;;;20.87;12.70;;;16.10;99.90;;;;;;5056739;28;20233;-64
2021/11/19 02:22:34;;;;;;;20.80;12.97;;;16.10;99.90;;;;;;5056184;28;20222;-64
2021/11/19 02:25:19;;;;;;;23.33;13.13;;;16.10;99.90;;;;;;5058364;28;20278;-65
2021/11/19 02:28:11;;;;;;;17.43;11.80;;;16.10;99.90;;;;;;5058497;28;20278;-64
2021/11/19 02:31:17;;;;;;;16.17;11.73;;;16.10;99.90;;;;;;5050876;28;21376;-64
2021/11/19 02:33:50;;;;;;;17.17;13.03;;;16.00;99.90;;;;;;5050192;28;20248;-64
2021/11/19 02:36:32;;;;;;;19.63;12.67;;;16.10;99.90;;;;;;5057601;28;20187;-65
2021/11/19 02:39:16;;;;;;;19.47;11.93;;;16.10;99.90;;;;;;5057221;28;20227;-64
2021/11/19 02:41:48;;;;;;;19.43;12.53;;;16.20;99.90;;;;;;5062841;28;20191;-64
2021/11/19 02:44:20;;;;;;;23.73;13.20;;;16.20;99.90;;;;;;5063423;28;20229;-64
2021/11/19 02:46:54;;;;;;;15.57;13.07;;;16.20;99.90;;;;;;5064598;28;20267;-64
2021/11/19 02:49:21;;;;;;;19.80;13.30;;;16.20;99.90;;;;;;5055325;28;20214;-64
2021/11/19 02:51:49;;;;;;;19.13;12.93;;;16.20;99.90;;;;;;5057821;28;20726;-64
2021/11/19 02:54:20;;;;;;;20.20;12.90;;;16.20;99.90;;;;;;5061980;28;20892;-65
2021/11/19 02:56:47;;;;;;;20.17;12.80;;;16.20;99.90;;;;;;5058644;28;20207;-66
2021/11/19 02:59:15;;;;;;;20.27;12.87;;;16.20;99.90;;;;;;5058363;28;20939;-66
2021/11/19 03:01:54;;;;;;;21.37;12.83;;;16.20;99.90;;;;;;5053852;28;20183;-66
2021/11/19 03:04:34;;;;;;;22.45;14.38;;;16.20;99.90;;;;;;5051902;28;20468;-63
2021/11/19 03:07:01;;;;;;;19.77;13.40;;;16.20;99.90;;;;;;5059954;28;20191;-65
2021/11/19 03:09:38;;;;;;;18.70;13.80;;;16.20;99.90;;;;;;5064641;28;20263;-64
2021/11/19 03:12:07;;;;;;;20.80;12.60;;;16.30;99.90;;;;;;5080574;28;20311;-64
2021/11/19 03:14:34;;;;;;;19.57;12.23;;;16.30;99.90;;;;;;5074037;28;20588;-64
2021/11/19 03:17:03;;;;;;;22.87;11.80;;;16.30;99.90;;;;;;5069245;28;20190;-64
2021/11/19 03:19:30;;;;;;;21.27;12.83;;;16.30;99.90;;;;;;5063530;28;20190;-63
2021/11/19 03:21:56;;;;;;;18.63;12.70;;;16.30;99.90;;;;;;5060872;28;20277;-64
2021/11/19 03:24:25;;;;;;;19.67;13.33;;;16.30;99.90;;;;;;5060535;28;20211;-64
2021/11/19 03:26:54;;;;;;;21.27;12.30;;;16.30;99.90;;;;;;5063238;28;20244;-63
2021/11/19 03:29:23;;;;;;;19.10;12.80;;;16.30;99.90;;;;;;5051961;28;20175;-63
2021/11/19 03:31:51;;;;;;;21.27;12.70;;;16.30;99.90;;;;;;5061869;28;20205;-63
2021/11/19 03:34:22;;;;;;;24.33;12.80;;;16.30;99.90;;;;;;5066790;28;20214;-64
2021/11/19 03:36:53;;;;;;;17.07;11.93;;;16.30;99.90;;;;;;5057034;28;20550;-63
2021/11/19 03:39:25;;;;;;;25.00;12.50;;;16.30;99.90;;;;;;5055320;28;20194;-63
2021/11/19 03:41:56;;;;;;;15.23;11.47;;;16.20;99.90;;;;;;5067976;28;20221;-62
2021/11/19 03:44:32;;;;;;;18.40;12.23;;;16.30;99.90;;;;;;5052660;28;20238;-62
2021/11/19 03:47:15;;;;;;;17.20;11.53;;;16.30;99.90;;;;;;5053478;28;20183;-63
2021/11/19 03:49:45;;;;;;;16.77;11.87;;;16.30;99.90;;;;;;5055799;28;20195;-63
2021/11/19 03:52:21;;;;;;;19.23;12.43;;;16.30;99.90;;;;;;5052109;28;20294;-64
2021/11/19 03:54:52;;;;;;;17.07;12.03;;;16.40;99.90;;;;;;5065123;28;20198;-63
2021/11/19 03:57:22;;;;;;;16.17;11.53;;;16.40;99.90;;;;;;5068306;28;20203;-63
2021/11/19 03:59:51;;;;;;;24.70;11.90;;;16.40;99.90;;;;;;5066844;28;20873;-63
2021/11/19 04:02:20;;;;;;;16.27;11.70;;;16.40;99.90;;;;;;5060208;28;20676;-64
2021/11/19 04:04:46;;;;;;;14.47;11.90;;;16.40;99.90;;;;;;5061931;28;20194;-62
2021/11/19 04:07:17;;;;;;;23.10;11.43;;;16.40;99.90;;;;;;5056348;28;20191;-63
2021/11/19 04:09:45;;;;;;;18.03;12.47;;;16.40;99.90;;;;;;5059846;28;20205;-63
2021/11/19 04:12:17;;;;;;;17.07;11.83;;;16.40;99.90;;;;;;5065722;28;20183;-62
2021/11/19 04:14:45;;;;;;;18.30;11.77;;;16.40;99.90;;;;;;5044490;28;20179;-63
2021/11/19 04:17:11;;;;;;;14.30;11.30;;;16.40;99.90;;;;;;5054364;28;20667;-63
2021/11/19 04:19:38;;;;;;;22.67;13.03;;;16.40;99.90;;;;;;5066140;28;20233;-63
2021/11/19 04:22:14;;;;;;;21.30;12.13;;;16.30;99.90;;;;;;5063243;28;20264;-63
2021/11/19 04:24:54;;;;;;;18.77;12.60;;;16.30;99.90;;;;;;5064033;28;20202;-62
2021/11/19 04:27:21;;;;;;;20.27;12.73;;;16.30;99.90;;;;;;5058420;28;20178;-63
2021/11/19 04:29:48;;;;;;;17.77;13.03;;;16.20;99.90;;;;;;5054710;28;20187;-64
2021/11/19 04:32:21;;;;;;;21.97;13.20;;;16.30;99.90;;;;;;5068266;28;20303;-63
2021/11/19 04:34:48;;;;;;;20.97;13.60;;;16.30;99.90;;;;;;5065914;28;20191;-63
2021/11/19 04:37:15;;;;;;;23.30;13.60;;;16.20;99.90;;;;;;5057207;28;20634;-63
2021/11/19 04:39:41;;;;;;;21.30;13.47;;;16.20;99.90;;;;;;5060734;28;20183;-64
2021/11/19 04:42:08;;;;;;;21.10;14.40;;;16.20;99.90;;;;;;5067922;28;20212;-63
2021/11/19 04:44:36;;;;;;;18.67;13.63;;;16.20;99.90;;;;;;5059359;28;20233;-63
2021/11/19 04:47:04;;;;;;;20.10;15.17;;;16.20;99.90;;;;;;5057240;28;20179;-63
2021/11/19 04:49:32;;;;;;;24.90;14.80;;;16.20;99.90;;;;;;5056284;28;20203;-63
2021/11/19 04:51:58;;;;;;;23.80;14.63;;;16.20;99.90;;;;;;5045457;28;20222;-63
2021/11/19 04:54:25;;;;;;;24.57;15.37;;;16.20;99.90;;;;;;5054891;28;20218;-64
2021/11/19 04:56:54;;;;;;;21.73;15.00;;;16.20;99.90;;;;;;5059030;28;20516;-63
2021/11/19 04:59:22;;;;;;;23.73;15.17;;;16.30;99.90;;;;;;5063638;28;20244;-63
2021/11/19 05:01:56;;;;;;;25.97;15.30;;;16.30;99.90;;;;;;5052942;28;20215;-63
2021/11/19 05:04:23;;;;;;;22.20;14.73;;;16.30;99.90;;;;;;5056685;28;20218;-63
2021/11/19 05:06:49;;;;;;;20.00;15.53;;;16.40;99.90;;;;;;5071125;28;20217;-63
2021/11/19 05:09:17;;;;;;;20.40;15.57;;;16.40;99.90;;;;;;5053702;28;20199;-64
2021/11/19 05:11:53;;;;;;;20.53;15.13;;;16.40;99.90;;;;;;5056800;28;20195;-65
2021/11/19 05:14:20;;;;;;;21.77;14.73;;;16.40;99.90;;;;;;5055148;28;20701;-64
2021/11/19 05:16:51;;;;;;;28.10;15.67;;;16.40;99.90;;;;;;5059452;28;20381;-65
2021/11/19 05:19:18;;;;;;;19.63;14.87;;;16.40;99.90;;;;;;5050892;28;20230;-63
2021/11/19 05:21:46;;;;;;;18.57;16.30;;;16.40;99.90;;;;;;5051173;28;20188;-62
2021/11/19 05:24:13;;;;;;;23.70;15.73;;;16.40;99.90;;;;;;5051544;28;20718;-62
2021/11/19 05:26:44;;;;;;;22.67;16.33;;;16.40;99.90;;;;;;5058134;28;20218;-61
2021/11/19 05:29:11;;;;;;;27.60;16.63;;;16.40;99.90;;;;;;5058223;28;20275;-62
2021/11/19 05:31:40;;;;;;;23.60;17.13;;;16.40;99.90;;;;;;5053259;28;20202;-61
2021/11/19 05:34:08;;;;;;;24.33;16.57;;;16.40;99.90;;;;;;5037322;28;20187;-62
2021/11/19 05:36:34;;;;;;;34.20;16.67;;;16.50;99.90;;;;;;5060817;28;20196;-62
2021/11/19 05:39:01;;;;;;;23.30;16.60;;;16.50;99.90;;;;;;5048357;28;20182;-62
2021/11/19 05:41:28;;;;;;;19.77;16.70;;;16.50;99.90;;;;;;5062349;28;20206;-63
2021/11/19 05:43:55;;;;;;;29.47;17.33;;;16.50;99.90;;;;;;5064320;28;20238;-64
2021/11/19 05:46:26;;;;;;;22.97;16.33;;;16.60;99.90;;;;;;5062537;28;20183;-62
2021/11/19 05:48:56;;;;;;;22.87;16.97;;;16.60;99.90;;;;;;5056077;28;20191;-64
2021/11/19 05:51:25;;;;;;;27.47;17.60;;;16.60;99.90;;;;;;5052657;28;20259;-63
2021/11/19 05:53:54;;;;;;;25.50;16.83;;;16.60;99.90;;;;;;5057864;28;20274;-63
2021/11/19 05:56:22;;;;;;;25.67;18.93;;;16.60;99.90;;;;;;5054038;28;20194;-63
2021/11/19 05:58:50;;;;;;;28.40;18.23;;;16.60;99.90;;;;;;5057306;28;20185;-62
2021/11/19 06:01:20;;;;;;;24.53;17.37;;;16.60;99.90;;;;;;5057663;28;20217;-62
2021/11/19 06:03:49;;;;;;;27.03;17.90;;;16.60;99.90;;;;;;5060941;28;20215;-63
2021/11/19 06:06:16;;;;;;;26.63;17.47;;;16.60;99.90;;;;;;5060407;28;20182;-62
2021/11/19 06:08:45;;;;;;;25.77;18.00;;;16.60;99.90;;;;;;5058265;28;20179;-63
2021/11/19 06:11:31;;;;;;;21.53;16.87;;;16.60;99.90;;;;;;5062450;28;20590;-63
2021/11/19 06:14:03;;;;;;;22.47;17.50;;;16.60;99.90;;;;;;5051798;28;20268;-62
2021/11/19 06:16:46;;;;;;;25.40;17.03;;;16.60;99.90;;;;;;5053618;28;20637;-62
2021/11/19 06:19:27;;;;;;;19.87;16.57;;;16.60;99.90;;;;;;5061453;28;20183;-63
2021/11/19 06:22:03;;;;;;;24.33;16.67;;;16.60;99.90;;;;;;5056754;28;20659;-63
2021/11/19 06:24:37;;;;;;;24.73;17.07;;;16.60;99.90;;;;;;5049092;28;20210;-63
2021/11/19 06:27:05;;;;;;;21.27;16.47;;;16.70;99.90;;;;;;5049572;28;20210;-63
2021/11/19 06:29:32;;;;;;;22.27;17.40;;;16.70;99.90;;;;;;5049693;28;20283;-63
2021/11/19 06:32:00;;;;;;;20.23;16.43;;;16.70;99.90;;;;;;5049341;28;20179;-63
2021/11/19 06:34:27;;;;;;;21.13;16.20;;;16.70;99.90;;;;;;5053225;28;20189;-62
2021/11/19 06:36:55;;;;;;;25.90;15.03;;;16.70;99.90;;;;;;5052918;28;20271;-63
2021/11/19 06:39:23;;;;;;;23.33;16.00;;;16.80;99.90;;;;;;5055891;28;20222;-62
2021/11/19 06:41:50;;;;;;;21.13;15.67;;;16.80;99.90;;;;;;5062915;28;20290;-63
2021/11/19 06:44:16;;;;;;;24.23;14.07;;;16.80;99.90;;;;;;5060285;28;20234;-62
2021/11/19 06:46:43;;;;;;;19.17;14.53;;;16.80;99.90;;;;;;5055659;28;20631;-64
2021/11/19 06:49:11;;;;;;;20.43;14.23;;;16.80;99.90;;;;;;5064551;28;20818;-64
2021/11/19 06:51:39;;;;;;;23.40;15.77;;;16.80;99.90;;;;;;5062443;28;20763;-63
2021/11/19 06:54:05;;;;;;;23.30;14.30;;;16.90;99.90;;;;;;5056811;28;20822;-64
2021/11/19 06:56:32;;;;;;;20.60;14.67;;;16.90;99.90;;;;;;5058762;28;20220;-64
2021/11/19 06:58:59;;;;;;;20.97;14.73;;;16.90;99.90;;;;;;5054107;28;20274;-64
2021/11/19 07:01:26;;;;;;;22.53;16.13;;;16.90;99.90;;;;;;5062866;28;20191;-63
2021/11/19 07:03:52;;;;;;;19.27;14.90;;;17.00;99.90;;;;;;5057307;28;20683;-63
2021/11/19 07:06:20;;;;;;;19.97;14.00;;;17.30;99.90;;;;;;5049793;28;20180;-63
2021/11/19 07:08:46;;;;;;;18.87;14.07;;;17.40;99.90;;;;;;5054894;28;20226;-65
2021/11/19 07:11:18;;;;;;;20.30;13.43;;;17.30;99.90;;;;;;5054737;28;20196;-64
2021/11/19 07:13:48;;;;;;;18.67;13.43;;;17.20;99.90;;;;;;5060589;28;20203;-64
2021/11/19 07:16:17;;;;;;;22.33;13.50;;;17.20;99.90;;;;;;5061188;28;20274;-64
2021/11/19 07:18:45;;;;;;;19.03;14.20;;;17.20;99.90;;;;;;5060466;28;20186;-64
2021/11/19 07:21:11;;;;;;;23.07;15.00;;;17.30;99.90;;;;;;5060557;28;20199;-64
2021/11/19 07:23:38;;;;;;;21.27;14.50;;;17.30;99.90;;;;;;5051833;28;20223;-65
2021/11/19 07:26:07;;;;;;;24.63;14.60;;;17.40;99.90;;;;;;5058554;28;20559;-63
2021/11/19 07:28:34;;;;;;;21.47;14.20;;;17.40;99.90;;;;;;5055385;28;20183;-64
2021/11/19 07:31:04;;;;;;;23.50;15.03;;;17.40;99.90;;;;;;5062185;28;20225;-65
2021/11/19 07:33:31;;;;;;;18.53;14.37;;;17.50;99.90;;;;;;5058210;28;20296;-63
2021/11/19 07:36:00;;;;;;;20.03;14.70;;;17.60;99.90;;;;;;5041211;28;20838;-62
2021/11/19 07:38:28;;;;;;;18.70;14.87;;;17.60;99.90;;;;;;5050098;28;20202;-62
2021/11/19 07:40:55;;;;;;;25.50;15.60;;;17.60;99.90;;;;;;5058699;28;20195;-62
2021/11/19 07:43:23;;;;;;;17.73;14.30;;;17.60;99.90;;;;;;5051104;28;20212;-63
2021/11/19 07:45:50;;;;;;;21.23;15.43;;;17.60;99.90;;;;;;5054473;28;20631;-63
2021/11/19 07:48:23;;;;;;;26.40;14.87;;;17.60;99.90;;;;;;5056586;28;20171;-63
2021/11/19 07:50:52;;;;;;;19.33;15.90;;;17.60;99.90;;;;;;5061826;28;20175;-62
2021/11/19 07:53:21;;;;;;;18.57;15.77;;;17.60;99.90;;;;;;5059492;28;20270;-63
2021/11/19 07:55:50;;;;;;;21.93;16.10;;;17.60;99.90;;;;;;5057321;28;20187;-63
2021/11/19 07:58:18;;;;;;;20.07;15.53;;;17.60;99.90;;;;;;5053306;28;20291;-64
2021/11/19 08:00:47;;;;;;;22.83;16.20;;;17.60;99.90;;;;;;5063104;28;20202;-62
2021/11/19 08:03:15;;;;;;;23.50;15.33;;;17.70;99.90;;;;;;5058315;28;20233;-62
2021/11/19 08:05:46;;;;;;;22.27;14.60;;;17.70;99.90;;;;;;5058156;28;20602;-63
2021/11/19 08:08:13;;;;;;;23.53;14.63;;;17.80;99.90;;;;;;5060563;28;20184;-62
2021/11/19 08:10:39;;;;;;;20.63;14.43;;;17.70;99.90;;;;;;5062189;28;20202;-63
2021/11/19 08:13:06;;;;;;;22.13;15.47;;;17.80;99.90;;;;;;5056313;28;20644;-62
2021/11/19 08:15:34;;;;;;;21.77;15.77;;;17.80;99.90;;;;;;5063236;28;20328;-63
2021/11/19 08:18:03;;;;;;;19.83;14.80;;;17.80;99.90;;;;;;5063804;28;20809;-62
2021/11/19 08:20:37;;;;;;;22.60;14.83;;;17.90;99.90;;;;;;5059349;28;20190;-63
2021/11/19 08:23:12;;;;;;;17.73;15.30;;;17.90;99.90;;;;;;5065160;28;20218;-63
2021/11/19 08:25:39;;;;;;;22.67;14.40;;;18.00;99.90;;;;;;5054865;28;20191;-63
2021/11/19 08:28:08;;;;;;;22.07;13.43;;;18.00;99.90;;;;;;5059941;28;20188;-62
2021/11/19 08:30:41;;;;;;;24.63;15.70;;;18.10;99.90;;;;;;5052464;28;20683;-63
2021/11/19 08:33:09;;;;;;;16.43;13.90;;;18.10;99.90;;;;;;5063848;28;20217;-63
2021/11/19 08:35:39;;;;;;;22.63;15.10;;;18.10;99.90;;;;;;5064533;28;20301;-63
2021/11/19 08:38:19;;;;;;;27.20;15.50;;;18.10;99.90;;;;;;5054827;28;20191;-63
2021/11/19 08:40:47;;;;;;;20.47;14.30;;;18.20;99.90;;;;;;5058968;28;20205;-62
2021/11/19 08:43:33;;;;;;;27.40;14.47;;;18.20;99.90;;;;;;5059901;28;20230;-63
2021/11/19 08:46:07;;;;;;;19.97;12.57;;;18.30;99.90;;;;;;5061079;28;20294;-64
2021/11/19 08:48:36;;;;;;;17.40;13.27;;;18.30;99.90;;;;;;5054958;28;20663;-63
2021/11/19 08:51:09;;;;;;;19.20;13.60;;;18.40;99.90;;;;;;5050713;28;20191;-64
2021/11/19 08:53:37;;;;;;;19.00;13.07;;;18.40;99.90;;;;;;5054479;28;20210;-64
2021/11/19 08:56:04;;;;;;;19.47;13.03;;;18.50;99.90;;;;;;5059203;28;20229;-65
2021/11/19 08:58:36;;;;;;;19.53;13.67;;;18.40;99.90;;;;;;5056416;28;20195;-65
2021/11/19 09:01:06;;;;;;;17.17;12.40;;;18.50;99.90;;;;;;5057658;28;20221;-64
2021/11/19 09:03:34;;;;;;;18.33;13.17;;;18.50;99.90;;;;;;5054535;28;20265;-65
2021/11/19 09:06:03;;;;;;;20.00;13.03;;;18.50;99.90;;;;;;5056402;28;20214;-65
2021/11/19 09:08:29;;;;;;;17.67;11.97;;;18.50;99.90;;;;;;5056358;28;20379;-65
2021/11/19 09:10:59;;;;;;;24.70;13.03;;;18.50;99.90;;;;;;5055973;28;20189;-65
2021/11/19 09:13:27;;;;;;;17.03;11.57;;;18.60;99.90;;;;;;5059855;28;20361;-64
2021/11/19 09:15:57;;;;;;;17.20;11.57;;;18.60;99.90;;;;;;5054095;28;20897;-64
2021/11/19 09:18:42;;;;;;;13.00;11.60;;;18.60;99.90;;;;;;5054273;28;20702;-65
2021/11/19 09:21:28;;;;;;;19.30;11.30;;;18.60;99.90;;;;;;5056085;28;20175;-64
2021/11/19 09:23:59;;;;;;;13.90;10.60;;;18.70;99.90;;;;;;5050846;28;20313;-64
2021/11/19 09:26:39;;;;;;;16.60;11.47;;;18.80;99.90;;;;;;5058704;28;20189;-64
2021/11/19 09:29:15;;;;;;;19.93;13.13;;;18.80;99.90;;;;;;5056738;28;20175;-63
2021/11/19 09:31:43;;;;;;;16.27;11.50;;;19.00;99.90;;;;;;5056514;28;20282;-63
2021/11/19 09:34:10;;;;;;;18.30;12.30;;;19.00;99.90;;;;;;5058225;28;20221;-63
2021/11/19 09:36:38;;;;;;;15.83;11.77;;;19.00;99.90;;;;;;5057721;28;20210;-65
2021/11/19 09:39:10;;;;;;;15.87;12.13;;;19.10;99.90;;;;;;5057346;28;20709;-63
2021/11/19 09:42:01;;;;;;;17.00;11.07;;;19.20;99.90;;;;;;5056897;28;20202;-66
2021/11/19 09:44:52;;;;;;;17.80;12.73;;;19.20;99.90;;;;;;5054499;28;20802;-65
2021/11/19 09:48:04;;;;;;;14.80;11.03;;;19.00;99.90;;;;;;5047620;28;20186;-66
2021/11/19 09:51:17;;;;;;;18.73;11.87;;;19.00;99.90;;;;;;5057198;28;20256;-65
2021/11/19 09:54:21;;;;;;;17.70;10.83;;;18.90;99.90;;;;;;5053800;28;20248;-64
2021/11/19 09:57:12;;;;;;;20.03;11.20;;;18.80;99.90;;;;;;5074670;28;20206;-65
2021/11/19 09:59:47;;;;;;;21.50;11.47;;;18.70;99.90;;;;;;5058959;28;20348;-64
2021/11/19 10:02:49;;;;;;;17.27;11.40;;;18.70;99.90;;;;;;5052750;28;20263;-65
2021/11/19 10:05:27;;;;;;;16.23;10.77;;;18.80;99.90;;;;;;5054905;28;20194;-65
2021/11/19 10:08:54;;;;;;;19.93;12.07;;;19.10;99.90;;;;;;5045820;28;20678;-65
2021/11/19 10:11:53;;;;;;;15.03;10.60;;;19.40;99.90;;;;;;5054053;28;20226;-65
2021/11/19 10:14:43;;;;;;;15.97;10.67;;;19.60;99.90;;;;;;5053321;28;20191;-64
2021/11/19 10:17:24;;;;;;;22.50;11.93;;;19.80;99.90;;;;;;5056334;28;20276;-64
2021/11/19 10:19:59;;;;;;;22.87;12.30;;;20.00;99.90;;;;;;5062012;28;20751;-65
2021/11/19 10:22:35;;;;;;;17.93;11.50;;;21.20;99.90;;;;;;5056440;28;20233;-64
2021/11/19 10:25:38;;;;;;;18.67;11.40;;;22.60;99.90;;;;;;5051991;28;20250;-63
2021/11/19 10:28:16;;;;;;;18.13;11.07;;;22.30;99.90;;;;;;5060500;28;20673;-63
2021/11/19 10:30:52;;;;;;;21.10;12.50;;;21.20;99.90;;;;;;5060276;28;20285;-62
2021/11/19 10:33:30;;;;;;;19.07;11.67;;;21.60;99.90;;;;;;5061975;28;20234;-64
2021/11/19 10:36:31;;;;;;;15.67;10.57;;;21.70;99.90;;;;;;5065130;28;20199;-62
2021/11/19 10:39:47;;;;;;;14.20;10.27;;;21.70;99.90;;;;;;5060972;28;20203;-63
2021/11/19 10:42:35;;;;;;;17.33;10.33;;;21.80;99.90;;;;;;5054825;28;20964;-62
2021/11/19 10:45:47;;;;;;;14.17;10.63;;;21.70;99.90;;;;;;5065889;28;20244;-63
2021/11/19 10:49:00;;;;;;;19.33;11.00;;;21.50;99.90;;;;;;5052922;28;20187;-63
2021/11/19 10:51:56;;;;;;;17.97;9.73;;;21.70;99.90;;;;;;5065603;28;20191;-62
2021/11/19 10:55:06;;;;;;;15.10;9.20;;;21.70;99.90;;;;;;5035332;28;20190;-63
2021/11/19 10:58:31;;;;;;;15.27;9.07;;;21.50;99.90;;;;;;5056844;28;20197;-62
2021/11/19 11:01:19;;;;;;;13.40;9.27;;;21.10;99.90;;;;;;5038132;28;20277;-64
2021/11/19 11:03:59;;;;;;;13.00;9.27;;;21.00;99.90;;;;;;5053839;28;20695;-63
2021/11/19 11:07:07;;;;;;;14.67;9.30;;;21.10;99.90;;;;;;5054478;28;20186;-62
2021/11/19 11:09:46;;;;;;;15.70;9.40;;;21.10;99.90;;;;;;5059222;28;20179;-62
2021/11/19 11:12:12;;;;;;;12.97;9.30;;;21.00;99.90;;;;;;5063728;28;20191;-64
2021/11/19 11:14:44;;;;;;;16.27;9.47;;;20.90;99.90;;;;;;5056327;28;20722;-63
2021/11/19 11:17:34;;;;;;;14.97;9.53;;;20.90;99.90;;;;;;5055718;28;20210;-62
2021/11/19 11:20:22;;;;;;;16.17;8.60;;;21.00;99.90;;;;;;5057615;28;20183;-64
2021/11/19 11:23:03;;;;;;;17.80;8.80;;;21.00;99.90;;;;;;5060083;28;20325;-63
2021/11/19 11:25:36;;;;;;;12.50;9.13;;;20.90;99.90;;;;;;5053778;28;20561;-62
2021/11/19 11:28:20;;;;;;;16.27;9.40;;;20.90;99.90;;;;;;5049896;28;20920;-63
2021/11/19 11:31:19;;;;;;;20.40;9.73;;;20.80;99.90;;;;;;5055839;28;20184;-63
2021/11/19 11:34:35;;;;;;;12.20;8.27;;;20.90;99.90;;;;;;5059486;28;20195;-62
2021/11/19 11:37:11;;;;;;;17.53;9.33;;;20.90;99.90;;;;;;5061475;28;20191;-64
2021/11/19 11:40:00;;;;;;;13.03;8.27;;;20.80;99.90;;;;;;5055773;28;20301;-63
2021/11/19 11:42:44;;;;;;;11.30;7.77;;;20.60;99.90;;;;;;5052278;28;20191;-64
2021/11/19 11:45:34;;;;;;;15.40;9.10;;;20.50;99.90;;;;;;5060283;28;20803;-64
2021/11/19 11:48:21;;;;;;;16.47;7.70;;;20.40;99.90;;;;;;5052212;28;20199;-63
2021/11/19 11:50:57;;;;;;;11.80;8.13;;;20.20;99.90;;;;;;5060646;28;20202;-64
2021/11/19 11:53:26;;;;;;;16.50;8.27;;;20.10;99.90;;;;;;5063259;28;20186;-65
2021/11/19 11:56:22;;;;;;;22.67;8.33;;;20.10;99.90;;;;;;5054554;28;20552;-64
2021/11/19 11:59:12;;;;;;;12.03;8.70;;;20.20;99.90;;;;;;5057399;28;20866;-64
2021/11/19 12:01:50;;;;;;;9.77;7.73;;;20.30;99.90;;;;;;5064870;28;20187;-64
2021/11/19 12:04:39;;;;;;;15.30;9.30;;;20.20;99.90;;;;;;5060218;28;20306;-64
2021/11/19 12:07:12;;;;;;;12.53;9.00;;;20.10;99.90;;;;;;5059754;28;20183;-64
2021/11/19 12:10:00;;;;;;;14.47;9.30;;;20.10;99.90;;;;;;5052491;28;20192;-65
2021/11/19 12:12:45;;;;;;;15.60;9.73;;;20.10;99.90;;;;;;5055300;28;20190;-65
2021/11/19 12:15:25;;;;;;;13.97;9.33;;;20.10;99.90;;;;;;5054907;28;20274;-65
2021/11/19 12:18:35;;;;;;;13.73;8.37;;;20.10;99.90;;;;;;5058228;28;20203;-65
2021/11/19 12:21:07;;;;;;;13.60;9.17;;;20.10;99.90;;;;;;5063388;28;20187;-65
2021/11/19 12:24:04;;;;;;;17.20;9.43;;;20.10;99.90;;;;;;5065285;28;20214;-64
2021/11/19 12:27:04;;;;;;;13.73;8.57;;;20.10;99.90;;;;;;5059951;28;20187;-65
2021/11/19 12:29:47;;;;;;;12.13;8.60;;;19.90;99.90;;;;;;5060023;28;20195;-64
2021/11/19 12:32:38;;;;;;;14.03;9.23;;;19.90;99.90;;;;;;5059384;28;20274;-65
2021/11/19 12:35:26;;;;;;;16.30;9.33;;;19.90;99.90;;;;;;5055201;28;20197;-64
2021/11/19 12:38:17;;;;;;;11.47;8.80;;;20.00;99.90;;;;;;5063308;28;20725;-64
2021/11/19 12:41:13;;;;;;;13.37;9.67;;;20.00;99.90;;;;;;5057841;28;20203;-64
2021/11/19 12:44:04;;;;;;;11.73;8.80;;;19.90;99.90;;;;;;5055278;28;20548;-64
2021/11/19 12:47:32;;;;;;;15.13;9.47;;;19.90;99.90;;;;;;5053338;28;20184;-64
2021/11/19 12:50:38;;;;;;;12.50;8.23;;;19.80;99.90;;;;;;5060177;28;20190;-65
2021/11/19 12:53:20;;;;;;;11.40;8.23;;;19.80;99.90;;;;;;5051313;28;20204;-65
2021/11/19 12:56:24;;;;;;;14.33;8.23;;;19.80;99.90;;;;;;5060707;28;20245;-64
2021/11/19 12:59:05;;;;;;;17.27;9.63;;;19.80;99.90;;;;;;5059995;28;20182;-64
2021/11/19 13:02:02;;;;;;;17.47;9.90;;;19.70;99.90;;;;;;5054819;28;20215;-65
2021/11/19 13:04:37;;;;;;;14.40;8.97;;;19.70;99.90;;;;;;5052959;28;20249;-65
2021/11/19 13:07:29;;;;;;;16.43;10.30;;;19.60;99.90;;;;;;5058241;28;20201;-64
2021/11/19 13:10:14;;;;;;;14.93;10.57;;;19.60;99.90;;;;;;5055569;28;20199;-64
2021/11/19 13:13:18;;;;;;;17.90;11.97;;;19.60;99.90;;;;;;5058240;28;20187;-65